Time;durP1;ratioP1;P1;durP2;ratioP2;P2;SDS_P1;SDS_P2;PMS_P1;PMS_P2;Temp;Humidity;BMP_temperature;BMP_pressure;BME280_temperature;BME280_humidity;BME280_pressure;Samples;Min_cycle;Max_cycle;Signal;HPM_P1;HPM_P2
2022/12/19 00:00:38;;;;;;;22.33;14.43;;;5.30;99.90;;;;;;5061222;28;20200;-30
2022/12/19 00:03:10;;;;;;;23.43;13.30;;;5.30;99.90;;;;;;5043242;28;20207;-30
2022/12/19 00:05:42;;;;;;;23.13;14.33;;;5.30;99.90;;;;;;5047122;28;20678;-30
2022/12/19 00:08:15;;;;;;;24.00;14.53;;;5.30;99.90;;;;;;5064165;28;20219;-30
2022/12/19 00:10:52;;;;;;;21.60;14.33;;;5.40;99.90;;;;;;5064720;28;20319;-30
2022/12/19 00:13:24;;;;;;;24.03;14.43;;;5.40;99.90;;;;;;5049657;28;20207;-30
2022/12/19 00:15:54;;;;;;;21.03;13.37;;;5.40;99.90;;;;;;5046956;28;20611;-31
2022/12/19 00:18:21;;;;;;;22.77;13.73;;;5.50;99.90;;;;;;5048039;28;20219;-30
2022/12/19 00:20:59;;;;;;;23.20;13.53;;;5.50;99.90;;;;;;5052252;28;20227;-30
2022/12/19 00:23:31;;;;;;;24.30;14.07;;;5.50;99.90;;;;;;5058439;28;20208;-30
2022/12/19 00:26:12;;;;;;;21.03;12.33;;;5.50;99.90;;;;;;5059549;28;20306;-30
2022/12/19 00:28:41;;;;;;;21.13;12.93;;;5.60;99.90;;;;;;5059036;28;20203;-29
2022/12/19 00:31:08;;;;;;;20.70;12.67;;;5.60;99.90;;;;;;5061598;28;20243;-29
2022/12/19 00:33:35;;;;;;;22.27;12.57;;;5.60;99.90;;;;;;5045014;28;20643;-30
2022/12/19 00:36:23;;;;;;;19.67;11.47;;;5.70;99.90;;;;;;5044163;28;20200;-30
2022/12/19 00:38:57;;;;;;;19.97;11.93;;;5.70;99.90;;;;;;5064162;28;20251;-30
2022/12/19 00:41:33;;;;;;;19.10;12.07;;;5.80;99.90;;;;;;5064695;28;20202;-30
2022/12/19 00:44:02;;;;;;;18.53;11.17;;;5.80;99.90;;;;;;5049158;28;20254;-30
2022/12/19 00:46:31;;;;;;;18.13;11.23;;;5.80;99.90;;;;;;5047213;28;20230;-29
2022/12/19 00:48:59;;;;;;;17.33;10.97;;;5.90;99.90;;;;;;5052191;28;20207;-30
2022/12/19 00:51:31;;;;;;;18.40;10.77;;;5.90;99.90;;;;;;5066164;28;20322;-30
2022/12/19 00:54:03;;;;;;;15.67;10.83;;;5.90;99.90;;;;;;5058253;28;20295;-30
2022/12/19 00:56:48;;;;;;;17.83;11.20;;;6.00;99.90;;;;;;5047570;28;20212;-30
2022/12/19 00:59:15;;;;;;;17.50;10.10;;;6.00;99.90;;;;;;5052939;28;20245;-30
2022/12/19 01:01:55;;;;;;;15.47;10.17;;;6.00;99.90;;;;;;5055354;28;20257;-29
2022/12/19 01:04:23;;;;;;;16.47;10.37;;;6.10;99.90;;;;;;5054764;28;20204;-29
2022/12/19 01:06:58;;;;;;;15.77;10.13;;;6.10;99.90;;;;;;5049270;28;20223;-30
2022/12/19 01:09:29;;;;;;;15.23;9.87;;;6.20;99.90;;;;;;5052609;28;20204;-30
2022/12/19 01:14:49;;;;;;;16.70;10.43;;;6.20;99.90;;;;;;5047323;28;20298;-30
2022/12/19 01:17:16;;;;;;;14.90;9.90;;;6.30;99.90;;;;;;5064574;28;20203;-30
2022/12/19 01:19:43;;;;;;;16.93;10.40;;;6.30;99.90;;;;;;5048352;28;20239;-29
2022/12/19 01:22:13;;;;;;;16.17;9.63;;;6.40;99.90;;;;;;5050183;28;20557;-30
2022/12/19 01:24:43;;;;;;;14.23;9.50;;;6.40;99.90;;;;;;5065966;28;20215;-29
2022/12/19 01:27:10;;;;;;;14.27;9.50;;;6.50;99.90;;;;;;5060435;28;20290;-29
2022/12/19 01:29:40;;;;;;;15.83;9.83;;;6.50;99.90;;;;;;5061558;28;20294;-29
2022/12/19 01:32:20;;;;;;;13.83;9.13;;;6.50;99.90;;;;;;5066528;28;20220;-29
2022/12/19 01:34:50;;;;;;;15.67;9.20;;;6.50;99.90;;;;;;5063578;28;20561;-29
2022/12/19 01:37:22;;;;;;;12.73;9.17;;;6.60;99.90;;;;;;5061400;28;20199;-29
2022/12/19 01:39:51;;;;;;;15.23;8.63;;;6.70;99.90;;;;;;5060144;28;20611;-29
2022/12/19 01:42:21;;;;;;;14.17;9.13;;;6.70;99.90;;;;;;5055500;28;20575;-29
2022/12/19 01:45:06;;;;;;;12.87;9.00;;;6.70;99.90;;;;;;5061333;28;20211;-29
2022/12/19 01:47:56;;;;;;;13.57;8.77;;;6.80;99.90;;;;;;5063460;28;20222;-29
2022/12/19 01:50:36;;;;;;;12.83;8.57;;;6.80;99.90;;;;;;5057916;28;20831;-29
2022/12/19 01:53:08;;;;;;;12.63;8.40;;;6.90;99.90;;;;;;5065962;28;20214;-29
2022/12/19 01:55:39;;;;;;;11.87;8.17;;;6.90;99.90;;;;;;5064993;28;20195;-29
2022/12/19 01:58:07;;;;;;;12.33;8.17;;;6.90;99.90;;;;;;5057213;28;20310;-29
2022/12/19 02:00:35;;;;;;;11.27;7.70;;;7.00;99.90;;;;;;5050981;28;20204;-29
2022/12/19 02:03:17;;;;;;;9.37;7.17;;;7.00;99.90;;;;;;5047062;28;20673;-29
2022/12/19 02:05:48;;;;;;;9.53;7.57;;;7.10;99.90;;;;;;5052920;28;20220;-29
2022/12/19 02:08:17;;;;;;;10.03;7.03;;;7.10;99.90;;;;;;5062010;28;20223;-29
2022/12/19 02:10:46;;;;;;;9.33;6.97;;;7.20;99.90;;;;;;5057740;28;20208;-29
2022/12/19 02:13:17;;;;;;;10.47;7.00;;;7.20;99.90;;;;;;5052363;28;20227;-29
2022/12/19 02:15:56;;;;;;;9.83;6.90;;;7.20;99.90;;;;;;5047972;28;20693;-29
2022/12/19 02:18:41;;;;;;;10.10;7.17;;;7.30;99.90;;;;;;5061863;28;20254;-29
2022/12/19 02:21:36;;;;;;;10.57;6.63;;;7.30;99.90;;;;;;5058409;28;20683;-29
2022/12/19 02:24:24;;;;;;;10.70;7.10;;;7.40;99.90;;;;;;5053107;28;20223;-29
2022/12/19 02:27:28;;;;;;;11.60;7.13;;;7.40;99.90;;;;;;5049110;28;20240;-29
2022/12/19 02:30:03;;;;;;;11.07;6.80;;;7.50;99.90;;;;;;5060229;28;20203;-29
2022/12/19 02:32:41;;;;;;;10.63;7.13;;;7.60;99.90;;;;;;5062467;28;20740;-29
2022/12/19 02:35:11;;;;;;;12.10;7.10;;;7.60;99.90;;;;;;5054120;28;20240;-29
2022/12/19 02:38:03;;;;;;;9.80;6.80;;;7.70;99.90;;;;;;5053670;28;20651;-29
2022/12/19 02:41:07;;;;;;;9.93;7.07;;;7.70;99.90;;;;;;5038427;28;20243;-29
2022/12/19 02:43:45;;;;;;;9.33;6.43;;;7.80;99.90;;;;;;5064737;28;20219;-29
2022/12/19 02:46:15;;;;;;;10.93;7.07;;;7.80;99.90;;;;;;5064623;28;20203;-29
2022/12/19 02:48:45;;;;;;;10.07;6.83;;;7.80;99.90;;;;;;5062466;28;20322;-29
2022/12/19 02:51:15;;;;;;;9.43;6.70;;;7.90;99.90;;;;;;5053474;28;20232;-29
2022/12/19 02:53:45;;;;;;;11.27;6.93;;;7.90;99.90;;;;;;5055038;28;20340;-29
2022/12/19 02:56:27;;;;;;;8.83;6.53;;;7.90;99.90;;;;;;5064282;28;20290;-29
2022/12/19 02:59:13;;;;;;;9.97;6.50;;;8.00;99.90;;;;;;5046591;28;20963;-29
2022/12/19 03:02:03;;;;;;;9.53;6.97;;;8.00;99.90;;;;;;5047651;28;20270;-29
2022/12/19 03:04:54;;;;;;;10.07;7.23;;;8.00;99.90;;;;;;5052859;28;20674;-29
2022/12/19 03:07:35;;;;;;;10.97;7.47;;;8.10;99.90;;;;;;5050148;28;20274;-29
2022/12/19 03:10:37;;;;;;;10.40;7.40;;;8.10;99.90;;;;;;5060715;28;20211;-29
2022/12/19 03:13:11;;;;;;;10.40;7.30;;;8.10;99.90;;;;;;5044958;28;20545;-29
2022/12/19 03:15:39;;;;;;;11.30;7.20;;;8.10;99.90;;;;;;5060922;28;20199;-29
2022/12/19 03:18:09;;;;;;;10.97;7.20;;;8.10;99.90;;;;;;5051860;28;20208;-29
2022/12/19 03:20:44;;;;;;;11.43;7.60;;;8.10;99.90;;;;;;5062002;28;20748;-29
2022/12/19 03:23:12;;;;;;;10.17;7.53;;;8.20;99.90;;;;;;5051792;28;20212;-29
2022/12/19 03:25:44;;;;;;;10.17;7.37;;;8.20;99.90;;;;;;5061177;28;20203;-29
2022/12/19 03:28:19;;;;;;;10.80;7.13;;;8.20;99.90;;;;;;5059961;28;20257;-29
2022/12/19 03:30:49;;;;;;;10.27;7.30;;;8.20;99.90;;;;;;5065134;28;20302;-29
2022/12/19 03:33:19;;;;;;;9.37;6.80;;;8.20;99.90;;;;;;5045005;28;20196;-29
2022/12/19 03:35:51;;;;;;;9.77;7.20;;;8.20;99.90;;;;;;5054760;28;20397;-29
2022/12/19 03:38:20;;;;;;;9.80;7.53;;;8.20;99.90;;;;;;5052787;28;20214;-29
2022/12/19 03:40:48;;;;;;;8.30;6.40;;;8.30;99.90;;;;;;5043940;28;20291;-29
2022/12/19 03:43:23;;;;;;;9.37;6.33;;;8.30;99.90;;;;;;5057675;28;20295;-30
2022/12/19 03:46:00;;;;;;;9.30;6.63;;;8.30;99.90;;;;;;5045894;28;20743;-29
2022/12/19 03:48:38;;;;;;;8.20;6.03;;;8.30;99.90;;;;;;5064689;28;20251;-29
2022/12/19 03:51:30;;;;;;;9.93;6.57;;;8.40;99.90;;;;;;5056703;28;20262;-29
2022/12/19 03:54:05;;;;;;;9.27;6.43;;;8.40;99.90;;;;;;5056844;28;20219;-29
2022/12/19 03:56:37;;;;;;;10.80;7.23;;;8.40;99.90;;;;;;5061125;28;20712;-29
2022/12/19 03:59:18;;;;;;;7.37;6.20;;;8.50;99.90;;;;;;5063788;28;20203;-29
2022/12/19 04:01:50;;;;;;;9.33;6.53;;;8.50;99.90;;;;;;5063114;28;20231;-29
2022/12/19 04:04:19;;;;;;;8.73;6.43;;;8.50;99.90;;;;;;5065257;28;20249;-29
2022/12/19 04:06:50;;;;;;;7.50;5.90;;;8.50;99.90;;;;;;5059009;28;20459;-29
2022/12/19 04:09:20;;;;;;;7.20;5.93;;;8.60;99.90;;;;;;5054297;28;20242;-29
2022/12/19 04:11:58;;;;;;;8.83;6.50;;;8.60;99.90;;;;;;5047652;28;20200;-29
2022/12/19 04:14:31;;;;;;;8.43;6.00;;;8.60;99.90;;;;;;5066766;28;20207;-29
2022/12/19 04:17:24;;;;;;;8.57;5.73;;;8.70;99.90;;;;;;5060784;28;20214;-29
2022/12/19 04:20:11;;;;;;;8.27;6.10;;;8.70;99.90;;;;;;5062573;28;20218;-29
2022/12/19 04:22:54;;;;;;;8.70;6.30;;;8.70;99.90;;;;;;5059649;28;20207;-30
2022/12/19 04:25:29;;;;;;;7.70;6.10;;;8.70;99.90;;;;;;5061855;28;20612;-29
2022/12/19 04:28:07;;;;;;;8.23;5.73;;;8.70;99.90;;;;;;5062914;28;20331;-29
2022/12/19 04:30:36;;;;;;;7.93;5.80;;;8.70;99.90;;;;;;5063585;28;20249;-29
2022/12/19 04:33:05;;;;;;;9.97;6.40;;;8.70;99.90;;;;;;5052000;28;20662;-29
2022/12/19 04:35:34;;;;;;;8.97;5.57;;;8.70;99.90;;;;;;5055500;28;20245;-29
2022/12/19 04:38:03;;;;;;;7.53;5.30;;;8.70;99.90;;;;;;5058597;28;20220;-29
2022/12/19 04:40:34;;;;;;;7.57;5.60;;;8.80;99.90;;;;;;5066796;28;20219;-29
2022/12/19 04:43:09;;;;;;;7.27;5.83;;;8.80;99.90;;;;;;5063921;28;20762;-29
2022/12/19 04:45:39;;;;;;;6.73;5.27;;;8.80;99.90;;;;;;5067273;28;20767;-29
2022/12/19 04:48:06;;;;;;;7.13;5.47;;;8.80;99.90;;;;;;5060901;28;20277;-29
2022/12/19 04:50:41;;;;;;;8.50;6.00;;;8.90;99.90;;;;;;5063104;28;20231;-29
2022/12/19 04:53:09;;;;;;;7.93;5.77;;;8.90;99.90;;;;;;5059662;28;20298;-29
2022/12/19 04:55:40;;;;;;;9.17;6.40;;;8.90;99.90;;;;;;5049473;28;20262;-29
2022/12/19 04:58:07;;;;;;;8.57;5.70;;;8.90;99.90;;;;;;5061519;28;20674;-29
2022/12/19 05:00:36;;;;;;;8.27;5.53;;;8.90;99.90;;;;;;5051517;28;20203;-29
2022/12/19 05:03:08;;;;;;;7.80;5.40;;;8.90;99.90;;;;;;5063413;28;20280;-29
2022/12/19 05:05:38;;;;;;;6.90;5.10;;;9.00;99.90;;;;;;5047233;28;20192;-29
2022/12/19 05:08:07;;;;;;;7.93;5.87;;;9.00;99.90;;;;;;5063081;28;20636;-29
2022/12/19 05:10:37;;;;;;;9.23;5.93;;;9.00;99.90;;;;;;5047542;28;20287;-29
2022/12/19 05:13:08;;;;;;;5.67;4.87;;;9.10;99.90;;;;;;5064060;28;20247;-29
2022/12/19 05:15:35;;;;;;;7.33;5.63;;;9.10;99.90;;;;;;5059088;28;20234;-31
2022/12/19 05:18:04;;;;;;;7.47;5.33;;;9.00;99.90;;;;;;5048437;28;21013;-31
2022/12/19 05:20:32;;;;;;;9.03;6.00;;;9.10;99.90;;;;;;5054157;28;20224;-31
2022/12/19 05:22:59;;;;;;;6.30;4.97;;;9.10;99.90;;;;;;5052038;28;20761;-31
2022/12/19 05:25:31;;;;;;;7.00;4.60;;;9.10;99.90;;;;;;5050047;28;20561;-31
2022/12/19 05:27:58;;;;;;;6.53;5.20;;;9.10;99.90;;;;;;5066400;28;20220;-31
2022/12/19 05:30:28;;;;;;;5.93;4.80;;;9.20;99.90;;;;;;5067532;28;20295;-31
2022/12/19 05:32:57;;;;;;;6.77;5.17;;;9.20;99.90;;;;;;5049184;28;20265;-31
2022/12/19 05:35:25;;;;;;;7.57;5.73;;;9.20;99.90;;;;;;5057163;28;20273;-31
2022/12/19 05:37:54;;;;;;;7.43;5.33;;;9.20;99.90;;;;;;5052524;28;20219;-31
2022/12/19 05:40:26;;;;;;;5.83;4.57;;;9.30;99.90;;;;;;5062570;28;20629;-31
2022/12/19 05:42:54;;;;;;;6.87;4.67;;;9.30;99.90;;;;;;5054493;28;20199;-31
2022/12/19 05:45:21;;;;;;;9.03;5.07;;;9.30;99.90;;;;;;5065311;28;20214;-31
2022/12/19 05:47:48;;;;;;;6.33;4.93;;;9.30;99.90;;;;;;5053916;28;20666;-31
2022/12/19 05:50:16;;;;;;;5.83;4.87;;;9.40;99.90;;;;;;5046698;28;20263;-31
2022/12/19 05:52:46;;;;;;;5.23;4.37;;;9.40;99.90;;;;;;5062911;28;20290;-31
2022/12/19 05:55:13;;;;;;;6.40;4.90;;;9.40;99.90;;;;;;5061338;28;20704;-31
2022/12/19 05:57:40;;;;;;;6.73;5.20;;;9.40;99.90;;;;;;5063634;28;20718;-31
2022/12/19 06:00:08;;;;;;;7.40;4.70;;;9.40;99.90;;;;;;5051729;28;20208;-31
2022/12/19 06:02:38;;;;;;;6.17;4.80;;;9.50;99.90;;;;;;5048488;28;20337;-30
2022/12/19 06:05:08;;;;;;;5.50;4.73;;;9.50;99.90;;;;;;5056206;28;20988;-31
2022/12/19 06:07:35;;;;;;;6.67;4.20;;;9.50;99.90;;;;;;5063975;28;20199;-31
2022/12/19 06:10:02;;;;;;;6.87;4.83;;;9.50;99.90;;;;;;5065391;28;20211;-31
2022/12/19 06:12:31;;;;;;;11.50;4.83;;;9.60;99.90;;;;;;5053607;28;20306;-30
2022/12/19 06:14:59;;;;;;;6.80;4.83;;;9.60;99.90;;;;;;5058350;28;20726;-30
2022/12/19 06:17:28;;;;;;;6.10;5.10;;;9.60;99.90;;;;;;5055301;28;20286;-30
2022/12/19 06:19:57;;;;;;;4.90;4.40;;;9.60;99.90;;;;;;5057039;28;20261;-30
2022/12/19 06:22:27;;;;;;;7.30;4.40;;;9.60;99.90;;;;;;5047135;28;20702;-30
2022/12/19 06:24:54;;;;;;;6.27;4.63;;;9.70;99.90;;;;;;5052966;28;20544;-30
2022/12/19 06:27:23;;;;;;;7.63;5.27;;;9.70;99.90;;;;;;5056903;28;20200;-30
2022/12/19 06:29:52;;;;;;;6.13;4.30;;;9.70;99.90;;;;;;5049780;28;20715;-30
2022/12/19 06:32:22;;;;;;;6.57;4.33;;;9.70;99.90;;;;;;5057864;28;20230;-30
2022/12/19 06:34:52;;;;;;;6.47;4.73;;;9.80;99.90;;;;;;5051042;28;20693;-30
2022/12/19 06:37:30;;;;;;;5.57;4.73;;;9.70;99.90;;;;;;5063868;28;20222;-30
2022/12/19 06:40:00;;;;;;;7.27;4.70;;;9.80;99.90;;;;;;5046603;28;20317;-30
2022/12/19 06:42:27;;;;;;;6.77;4.43;;;9.80;99.90;;;;;;5051595;28;20702;-30
2022/12/19 06:44:57;;;;;;;5.73;4.33;;;9.80;99.90;;;;;;5052214;28;20203;-31
2022/12/19 06:47:24;;;;;;;6.80;5.07;;;9.80;99.90;;;;;;5062502;28;20637;-31
2022/12/19 06:49:52;;;;;;;5.57;4.43;;;9.80;99.90;;;;;;5061394;28;20244;-31
2022/12/19 06:52:19;;;;;;;7.13;4.80;;;9.80;99.90;;;;;;5049299;28;20713;-31
2022/12/19 06:54:46;;;;;;;6.87;4.83;;;9.80;99.90;;;;;;5050321;28;20243;-31
2022/12/19 06:57:13;;;;;;;6.43;4.70;;;9.90;99.90;;;;;;5048014;28;20216;-31
2022/12/19 06:59:41;;;;;;;5.50;4.30;;;9.80;99.90;;;;;;5064096;28;20199;-31
2022/12/19 07:02:24;;;;;;;6.67;4.40;;;9.80;99.90;;;;;;5054283;28;20196;-30
2022/12/19 07:05:02;;;;;;;4.70;4.20;;;9.90;99.90;;;;;;5045734;28;20239;-31
2022/12/19 07:07:32;;;;;;;10.17;4.67;;;9.90;99.90;;;;;;5046575;28;20648;-29
2022/12/19 07:09:59;;;;;;;6.27;4.30;;;9.90;99.90;;;;;;5063044;28;20339;-29
2022/12/19 07:12:29;;;;;;;7.07;4.63;;;9.90;99.90;;;;;;5058485;28;20670;-30
2022/12/19 07:14:58;;;;;;;6.33;4.50;;;9.90;99.90;;;;;;5064164;28;20302;-29
2022/12/19 07:17:28;;;;;;;5.93;4.10;;;9.90;99.90;;;;;;5055781;28;20218;-30
2022/12/19 07:19:59;;;;;;;4.97;4.30;;;9.90;99.90;;;;;;5063853;28;20631;-30
2022/12/19 07:22:31;;;;;;;6.33;4.40;;;9.90;99.90;;;;;;5054017;28;20212;-29
2022/12/19 07:25:02;;;;;;;7.17;4.90;;;9.90;99.90;;;;;;5060015;28;20219;-30
2022/12/19 07:27:29;;;;;;;5.43;4.40;;;9.90;99.90;;;;;;5061682;28;20240;-30
2022/12/19 07:30:03;;;;;;;12.03;4.70;;;9.90;99.90;;;;;;5062043;28;20226;-30
2022/12/19 07:32:33;;;;;;;5.00;3.90;;;9.90;99.90;;;;;;5065762;28;20222;-30
2022/12/19 07:35:02;;;;;;;5.47;3.70;;;9.90;99.90;;;;;;5052914;28;20668;-29
2022/12/19 07:37:32;;;;;;;7.07;3.90;;;10.00;99.90;;;;;;5043672;28;20296;-30
2022/12/19 07:40:02;;;;;;;7.30;4.60;;;10.00;99.90;;;;;;5057113;28;20214;-30
2022/12/19 07:42:31;;;;;;;12.43;5.00;;;9.90;99.90;;;;;;5053010;28;20557;-30
2022/12/19 07:45:00;;;;;;;6.57;4.33;;;10.00;99.90;;;;;;5058300;28;20205;-29
2022/12/19 07:47:27;;;;;;;5.80;4.10;;;10.00;99.90;;;;;;5043072;28;20196;-30
2022/12/19 07:49:54;;;;;;;6.23;4.07;;;10.00;99.90;;;;;;5054878;28;20238;-30
2022/12/19 07:52:21;;;;;;;5.67;3.67;;;10.00;99.90;;;;;;5058366;28;20671;-30
2022/12/19 07:54:49;;;;;;;5.87;4.40;;;10.10;99.90;;;;;;5049982;28;20199;-29
2022/12/19 07:57:16;;;;;;;6.93;4.57;;;10.00;99.90;;;;;;5064404;28;20268;-29
2022/12/19 07:59:45;;;;;;;7.17;4.33;;;10.00;99.90;;;;;;5052349;28;20208;-29
2022/12/19 08:02:12;;;;;;;5.67;4.40;;;10.10;99.90;;;;;;5066140;28;20238;-29
2022/12/19 08:04:40;;;;;;;6.43;4.03;;;10.10;99.90;;;;;;5053495;28;20224;-29
2022/12/19 08:07:07;;;;;;;5.83;4.27;;;10.10;99.90;;;;;;5052394;28;20209;-29
2022/12/19 08:09:37;;;;;;;4.43;3.87;;;10.10;99.90;;;;;;5058727;28;20223;-29
2022/12/19 08:12:05;;;;;;;7.63;4.40;;;10.10;99.90;;;;;;5048487;28;20633;-29
2022/12/19 08:14:32;;;;;;;6.27;4.50;;;10.10;99.90;;;;;;5051713;28;20740;-29
2022/12/19 08:16:59;;;;;;;6.00;4.00;;;10.20;99.90;;;;;;5059110;28;20966;-29
2022/12/19 08:19:49;;;;;;;7.43;4.20;;;10.20;99.90;;;;;;5068350;28;20210;-29
2022/12/19 08:22:18;;;;;;;4.30;3.83;;;10.20;99.90;;;;;;5059092;28;20265;-29
2022/12/19 08:24:45;;;;;;;7.23;4.40;;;10.20;99.90;;;;;;5058875;28;20231;-29
2022/12/19 08:27:17;;;;;;;5.80;3.80;;;10.30;99.90;;;;;;5060857;28;20651;-29
2022/12/19 08:29:44;;;;;;;7.83;3.83;;;10.30;99.90;;;;;;5059066;28;20262;-29
2022/12/19 08:32:15;;;;;;;6.67;3.90;;;10.30;99.90;;;;;;5049678;28;20213;-31
2022/12/19 08:34:50;;;;;;;4.33;3.50;;;10.30;99.90;;;;;;5050595;28;20208;-31
2022/12/19 08:37:18;;;;;;;4.03;3.50;;;10.30;99.90;;;;;;5048604;28;20200;-29
2022/12/19 08:39:47;;;;;;;5.93;3.87;;;10.30;99.90;;;;;;5054716;28;20674;-29
2022/12/19 08:42:17;;;;;;;6.27;3.37;;;10.40;99.90;;;;;;5060836;28;20731;-29
2022/12/19 08:44:44;;;;;;;5.20;4.20;;;10.40;99.90;;;;;;5048156;28;20314;-29
2022/12/19 08:47:14;;;;;;;5.77;3.50;;;10.40;99.90;;;;;;5048646;28;20204;-31
2022/12/19 08:49:41;;;;;;;4.43;3.60;;;10.50;99.90;;;;;;5067891;28;20635;-31
2022/12/19 08:52:15;;;;;;;4.87;3.47;;;10.50;99.90;;;;;;5068741;28;20724;-29
2022/12/19 08:54:43;;;;;;;7.27;4.07;;;10.50;99.90;;;;;;5064301;28;20459;-29
2022/12/19 08:57:15;;;;;;;5.63;3.57;;;10.50;99.90;;;;;;5066032;28;20212;-29
2022/12/19 08:59:45;;;;;;;5.13;3.80;;;10.50;99.90;;;;;;5065071;28;20252;-29
2022/12/19 09:02:15;;;;;;;5.70;3.30;;;10.50;99.90;;;;;;5067124;28;20207;-29
2022/12/19 09:04:45;;;;;;;7.07;3.60;;;10.50;99.90;;;;;;5068066;28;20211;-29
2022/12/19 09:07:35;;;;;;;3.30;2.80;;;10.60;99.90;;;;;;5068240;28;20227;-29
2022/12/19 09:10:07;;;;;;;5.60;3.00;;;10.60;99.90;;;;;;5058572;28;20231;-29
2022/12/19 09:12:37;;;;;;;7.93;3.80;;;10.60;99.90;;;;;;5062491;28;20195;-30
2022/12/19 09:15:05;;;;;;;3.93;2.83;;;10.60;99.90;;;;;;5067343;28;20271;-29
2022/12/19 09:17:32;;;;;;;8.60;3.57;;;10.60;99.90;;;;;;5057092;28;20204;-29
2022/12/19 09:20:04;;;;;;;4.50;3.40;;;10.70;99.90;;;;;;5047374;28;20208;-29
2022/12/19 09:22:31;;;;;;;4.63;3.57;;;10.70;99.90;;;;;;5054617;28;20219;-30
2022/12/19 09:24:58;;;;;;;6.87;3.53;;;10.70;99.90;;;;;;5060663;28;20200;-30
2022/12/19 09:27:27;;;;;;;3.80;3.40;;;10.80;99.90;;;;;;5053795;28;20231;-29
2022/12/19 09:29:55;;;;;;;12.17;4.40;;;10.80;99.90;;;;;;5065956;28;20300;-29
2022/12/19 09:32:24;;;;;;;8.60;3.93;;;10.80;99.90;;;;;;5055893;28;20200;-29
2022/12/19 09:34:57;;;;;;;6.07;3.50;;;10.80;99.90;;;;;;5046763;28;20215;-29
2022/12/19 09:37:24;;;;;;;5.43;3.50;;;10.80;99.90;;;;;;5057678;28;20196;-29
2022/12/19 09:39:51;;;;;;;9.17;3.70;;;10.90;99.90;;;;;;5053699;28;21157;-29
2022/12/19 09:42:34;;;;;;;5.47;2.87;;;10.90;99.90;;;;;;5052124;28;20214;-29
2022/12/19 09:45:45;;;;;;;5.57;3.70;;;10.90;99.90;;;;;;5066911;28;20211;-30
2022/12/19 09:48:17;;;;;;;6.27;3.30;;;10.90;99.90;;;;;;5054699;28;20732;-30
2022/12/19 09:51:07;;;;;;;6.83;3.00;;;10.90;99.90;;;;;;5062764;28;20243;-30
2022/12/19 09:54:06;;;;;;;4.47;2.80;;;10.90;99.90;;;;;;5054075;28;20293;-30
2022/12/19 09:56:41;;;;;;;4.70;3.23;;;10.90;99.90;;;;;;5045125;28;20200;-29
2022/12/19 09:59:25;;;;;;;5.40;3.30;;;10.90;99.90;;;;;;5062817;28;20219;-32
2022/12/19 10:02:29;;;;;;;3.67;3.03;;;10.90;99.90;;;;;;5065766;28;20270;-32
2022/12/19 10:05:22;;;;;;;5.30;3.20;;;10.90;99.90;;;;;;5055165;28;20203;-32
2022/12/19 10:08:36;;;;;;;5.50;3.23;;;10.90;99.90;;;;;;5060656;28;20222;-32
2022/12/19 10:11:36;;;;;;;6.17;3.07;;;11.00;99.90;;;;;;5056019;28;20239;-31
2022/12/19 10:14:47;;;;;;;5.00;3.10;;;10.90;99.90;;;;;;5054402;28;20319;-32
2022/12/19 10:17:46;;;;;;;5.03;2.80;;;11.00;99.90;;;;;;5049127;28;20586;-32
2022/12/19 10:20:28;;;;;;;3.97;2.80;;;11.00;99.90;;;;;;5033373;28;20204;-33
2022/12/19 10:23:00;;;;;;;8.23;3.33;;;11.00;99.90;;;;;;5059664;28;20608;-31
2022/12/19 10:25:40;;;;;;;5.17;3.30;;;11.00;99.90;;;;;;5050223;28;20574;-32
2022/12/19 10:28:17;;;;;;;4.30;3.00;;;11.00;99.90;;;;;;5061308;28;20205;-32
2022/12/19 10:31:02;;;;;;;5.87;2.93;;;11.00;99.90;;;;;;5052925;28;20227;-31
2022/12/19 10:33:58;;;;;;;4.63;2.90;;;11.00;99.90;;;;;;5051583;28;20576;-32
2022/12/19 10:36:29;;;;;;;4.53;2.67;;;11.00;99.90;;;;;;5053330;28;20266;-32
2022/12/19 10:39:29;;;;;;;3.73;2.73;;;11.00;99.90;;;;;;5055760;28;20203;-31
2022/12/19 10:42:12;;;;;;;8.57;4.00;;;11.00;99.90;;;;;;5053812;28;20208;-31
2022/12/19 10:44:41;;;;;;;6.93;3.60;;;11.00;99.90;;;;;;5055946;28;20203;-31
2022/12/19 10:47:16;;;;;;;5.20;3.07;;;11.10;99.90;;;;;;5050235;28;20204;-31
2022/12/19 10:49:48;;;;;;;6.17;3.57;;;11.10;99.90;;;;;;5054490;28;20730;-31
2022/12/19 10:52:45;;;;;;;5.53;3.10;;;11.10;99.90;;;;;;5049720;28;20231;-32
2022/12/19 10:55:39;;;;;;;5.97;2.97;;;11.10;99.90;;;;;;5042709;28;20192;-32
2022/12/19 10:58:25;;;;;;;5.53;3.13;;;11.20;99.90;;;;;;5057816;28;20219;-32
2022/12/19 11:01:03;;;;;;;6.80;3.20;;;11.20;99.90;;;;;;5050491;28;20220;-32
2022/12/19 11:03:34;;;;;;;4.23;2.90;;;11.20;99.90;;;;;;5059409;28;20207;-31
2022/12/19 11:06:03;;;;;;;5.20;2.57;;;11.30;99.90;;;;;;5050408;28;20207;-32
2022/12/19 11:08:37;;;;;;;4.97;2.90;;;11.30;99.90;;;;;;5045655;28;20254;-31
2022/12/19 11:11:04;;;;;;;5.37;3.10;;;11.30;99.90;;;;;;5059135;28;20801;-31
2022/12/19 11:13:52;;;;;;;5.87;2.77;;;11.30;99.90;;;;;;5052682;28;20207;-32
2022/12/19 11:16:39;;;;;;;4.37;2.83;;;11.40;99.90;;;;;;5043155;28;20215;-32
2022/12/19 11:19:35;;;;;;;3.70;2.87;;;11.40;99.90;;;;;;5047152;28;20208;-32
2022/12/19 11:22:29;;;;;;;5.87;2.90;;;11.50;99.90;;;;;;5055407;28;20207;-31
2022/12/19 11:25:20;;;;;;;5.40;2.90;;;11.50;99.90;;;;;;5049304;28;20526;-32
2022/12/19 11:28:34;;;;;;;3.07;2.50;;;11.60;99.90;;;;;;5064295;28;20686;-32
2022/12/19 11:31:24;;;;;;;3.57;2.60;;;11.60;99.90;;;;;;5060715;28;20207;-32
2022/12/19 11:34:20;;;;;;;5.10;2.80;;;11.70;99.90;;;;;;5049814;28;20200;-31
2022/12/19 11:37:06;;;;;;;5.63;2.57;;;11.70;99.90;;;;;;5049752;28;20989;-32
2022/12/19 11:39:43;;;;;;;4.63;2.60;;;11.70;99.90;;;;;;5063823;28;20199;-32
2022/12/19 11:42:25;;;;;;;4.33;2.53;;;11.80;99.90;;;;;;5064916;28;20719;-32
2022/12/19 11:45:22;;;;;;;5.60;2.60;;;11.80;99.90;;;;;;5055604;28;20209;-32
2022/12/19 11:48:15;;;;;;;4.53;2.90;;;11.80;99.90;;;;;;5057684;28;20220;-32
2022/12/19 11:51:05;;;;;;;4.40;3.10;;;11.80;99.90;;;;;;5051224;28;20235;-32
2022/12/19 11:53:51;;;;;;;4.27;3.00;;;11.90;99.90;;;;;;5046931;28;20203;-31
2022/12/19 11:56:26;;;;;;;5.80;2.53;;;11.90;99.90;;;;;;5057755;28;20298;-31
2022/12/19 11:59:01;;;;;;;3.83;2.27;;;11.90;99.90;;;;;;5056196;28;20257;-32
2022/12/19 12:01:48;;;;;;;4.27;2.50;;;11.90;99.90;;;;;;5056066;28;20468;-31
2022/12/19 12:04:45;;;;;;;4.03;2.80;;;11.90;99.90;;;;;;5056705;28;20262;-32
2022/12/19 12:07:15;;;;;;;3.10;2.20;;;11.90;99.90;;;;;;5064823;28;20191;-31
2022/12/19 12:10:23;;;;;;;3.07;2.40;;;12.00;99.90;;;;;;5051816;28;20682;-32
2022/12/19 12:13:35;;;;;;;4.27;2.60;;;12.00;99.90;;;;;;5045004;28;20208;-32
2022/12/19 12:16:39;;;;;;;2.63;2.43;;;12.00;99.90;;;;;;5049844;28;20199;-32
2022/12/19 12:19:33;;;;;;;3.90;2.60;;;12.00;99.90;;;;;;5058147;28;20753;-31
2022/12/19 12:22:50;;;;;;;5.13;2.30;;;12.00;99.90;;;;;;5064473;28;20608;-32
2022/12/19 12:25:54;;;;;;;3.70;2.53;;;12.10;99.90;;;;;;5050066;28;20295;-31
2022/12/19 12:28:47;;;;;;;3.67;2.50;;;12.10;99.90;;;;;;5049740;28;20203;-31
2022/12/19 12:32:12;;;;;;;3.07;2.00;;;12.10;99.90;;;;;;5063361;28;20290;-32
2022/12/19 12:35:24;;;;;;;3.60;2.47;;;12.10;99.90;;;;;;5059781;28;20576;-32
2022/12/19 12:38:27;;;;;;;4.77;2.33;;;12.10;99.90;;;;;;5065163;28;20557;-32
2022/12/19 12:41:14;;;;;;;3.97;2.50;;;12.10;99.90;;;;;;5054644;28;20754;-32
2022/12/19 12:43:51;;;;;;;5.03;2.50;;;12.20;99.90;;;;;;5068346;28;20318;-32
2022/12/19 12:46:33;;;;;;;2.47;2.27;;;12.20;99.90;;;;;;5066190;28;20207;-32
2022/12/19 12:49:03;;;;;;;3.17;2.40;;;12.20;99.90;;;;;;5049101;28;20215;-32
2022/12/19 12:51:38;;;;;;;3.67;2.17;;;12.30;99.90;;;;;;5047485;28;20228;-32
2022/12/19 12:54:11;;;;;;;3.93;2.30;;;12.20;99.90;;;;;;5057186;28;20214;-32
2022/12/19 12:56:41;;;;;;;3.27;2.17;;;12.30;99.90;;;;;;5048455;28;20208;-32
2022/12/19 12:59:22;;;;;;;3.67;2.23;;;12.30;99.90;;;;;;5053276;28;20538;-33
2022/12/19 13:01:57;;;;;;;2.80;2.20;;;12.40;99.90;;;;;;5065133;28;20195;-33
2022/12/19 13:04:40;;;;;;;4.07;2.00;;;12.40;99.90;;;;;;5063283;28;20575;-33
2022/12/19 13:07:12;;;;;;;3.70;2.53;;;12.40;99.90;;;;;;5060248;28;20618;-33
2022/12/19 13:09:41;;;;;;;3.10;2.40;;;12.40;99.90;;;;;;5062216;28;20219;-32
2022/12/19 13:15:30;;;;;;;3.03;2.00;;;12.50;99.90;;;;;;5067169;28;20219;-32
2022/12/19 13:18:12;;;;;;;4.67;2.17;;;12.50;99.90;;;;;;5067239;28;20194;-32
2022/12/19 13:20:43;;;;;;;4.17;2.37;;;12.50;99.90;;;;;;5065042;28;20288;-33
2022/12/19 13:23:28;;;;;;;3.03;2.00;;;12.50;99.90;;;;;;5055430;28;20526;-32
2022/12/19 13:25:59;;;;;;;3.30;2.20;;;12.50;99.90;;;;;;5048805;28;20223;-32
2022/12/19 13:28:27;;;;;;;3.60;2.13;;;12.50;99.90;;;;;;5065549;28;20196;-33
2022/12/19 13:31:03;;;;;;;4.30;2.20;;;12.50;99.90;;;;;;5065303;28;20316;-32
2022/12/19 13:34:16;;;;;;;3.00;2.17;;;12.50;99.90;;;;;;5066833;28;20673;-32
2022/12/19 13:36:45;;;;;;;5.40;2.20;;;12.50;99.90;;;;;;5043950;28;20212;-32
2022/12/19 13:39:35;;;;;;;2.33;1.70;;;12.50;99.90;;;;;;5054481;28;20212;-33
2022/12/19 13:45:24;;;;;;;4.20;2.50;;;12.50;99.90;;;;;;5066540;28;20203;-33